createdAt,value
2019-04-30T00:00:02.288Z,7.90
2019-04-30T00:02:35.846Z,7.90
2019-04-30T00:05:01.387Z,7.90
2019-04-30T00:07:29.524Z,7.80
2019-04-30T00:09:57.645Z,7.70
2019-04-30T00:12:25.735Z,7.70
2019-04-30T00:14:52.680Z,7.80
2019-04-30T00:17:21.236Z,7.70
2019-04-30T00:19:50.384Z,7.60
2019-04-30T00:22:16.736Z,7.60
2019-04-30T00:24:46.793Z,7.60
2019-04-30T00:27:12.339Z,7.50
2019-04-30T00:29:39.102Z,7.50
2019-04-30T00:32:07.872Z,7.50
2019-04-30T00:34:35.899Z,7.40
2019-04-30T00:37:07.414Z,7.30
2019-04-30T00:39:35.530Z,7.30
2019-04-30T00:42:02.512Z,7.30
2019-04-30T00:44:29.788Z,7.30
2019-04-30T00:47:00.587Z,7.30
2019-04-30T00:49:26.654Z,7.30
2019-04-30T00:51:57.007Z,7.30
2019-04-30T00:54:27.110Z,7.20
2019-04-30T00:56:51.278Z,7.20
2019-04-30T00:59:18.291Z,7.20
2019-04-30T01:04:37.318Z,7.30
2019-04-30T01:07:05.202Z,7.20
2019-04-30T01:09:33.124Z,7.20
2019-04-30T01:12:00.041Z,7.10
2019-04-30T01:14:28.310Z,7.10
2019-04-30T01:16:57.011Z,7.10
2019-04-30T01:19:30.028Z,7.00
2019-04-30T01:21:52.504Z,7.00
2019-04-30T01:24:23.439Z,6.90
2019-04-30T01:26:48.577Z,6.90
2019-04-30T01:29:16.765Z,6.80
2019-04-30T01:31:43.734Z,6.70
2019-04-30T01:34:14.047Z,6.60
2019-04-30T01:36:43.481Z,6.60
2019-04-30T01:39:09.458Z,6.60
2019-04-30T01:41:36.541Z,6.50
2019-04-30T01:44:03.712Z,6.50
2019-04-30T01:46:32.157Z,6.40
2019-04-30T01:48:59.001Z,6.40
2019-04-30T01:51:25.896Z,6.30
2019-04-30T01:53:52.756Z,6.30
2019-04-30T01:56:38.915Z,6.20
2019-04-30T01:59:09.173Z,6.10
2019-04-30T02:01:39.035Z,6.10
2019-04-30T02:04:05.754Z,6.00
2019-04-30T02:06:32.741Z,6.00
2019-04-30T02:08:59.499Z,5.90
2019-04-30T02:11:26.346Z,5.80
2019-04-30T02:13:53.200Z,5.80
2019-04-30T02:16:21.164Z,5.70
2019-04-30T02:18:49.518Z,5.60
2019-04-30T02:21:16.655Z,5.60
2019-04-30T02:23:43.698Z,5.50
2019-04-30T02:26:10.635Z,5.50
2019-04-30T02:28:39.271Z,5.50
2019-04-30T02:31:26.005Z,5.40
2019-04-30T02:33:54.692Z,5.40
2019-04-30T02:36:40.516Z,5.30
2019-04-30T02:39:10.818Z,5.30
2019-04-30T02:41:36.289Z,5.30
2019-04-30T02:44:03.042Z,5.30
2019-04-30T02:46:32.347Z,5.20
2019-04-30T02:48:59.774Z,5.20
2019-04-30T02:51:29.932Z,5.20
2019-04-30T02:54:09.775Z,5.10
2019-04-30T02:56:39.811Z,5.10
2019-04-30T02:59:05.568Z,5.10
2019-04-30T03:01:32.420Z,5.10
2019-04-30T03:03:59.908Z,5.10
2019-04-30T03:06:29.733Z,5.10
2019-04-30T03:08:55.874Z,5.10
2019-04-30T03:11:22.621Z,5.10
2019-04-30T03:13:49.759Z,5.10
2019-04-30T03:16:20.763Z,5.10
2019-04-30T03:18:51.893Z,5.00
2019-04-30T03:21:36.941Z,5.10
2019-04-30T03:24:03.877Z,5.10
2019-04-30T03:26:30.828Z,5.10
2019-04-30T03:29:00.686Z,5.10
2019-04-30T03:31:26.441Z,5.10
2019-04-30T03:33:53.186Z,5.10
2019-04-30T03:36:21.769Z,5.10
2019-04-30T03:38:50.098Z,5.20
2019-04-30T03:41:19.922Z,5.20
2019-04-30T03:43:46.005Z,5.20
2019-04-30T03:46:12.955Z,5.20
2019-04-30T03:48:39.797Z,5.20
2019-04-30T03:51:06.761Z,5.30
2019-04-30T03:53:34.206Z,5.40
2019-04-30T03:56:01.565Z,5.50
2019-04-30T03:58:29.340Z,5.70
2019-04-30T04:03:42.088Z,6.10
2019-04-30T04:11:51.844Z,6.60
2019-04-30T04:14:19.777Z,6.70
2019-04-30T04:16:46.924Z,6.90
2019-04-30T04:19:13.716Z,7.10
2019-04-30T04:21:40.589Z,7.30
2019-04-30T04:24:10.423Z,7.40
2019-04-30T04:26:36.088Z,7.70
2019-04-30T04:29:03.344Z,7.80
2019-04-30T04:31:30.111Z,8.10
2019-04-30T04:33:59.802Z,8.10
2019-04-30T04:36:25.605Z,8.30
2019-04-30T04:38:52.441Z,8.50
2019-04-30T04:41:19.748Z,8.70
2019-04-30T04:44:01.273Z,8.80
2019-04-30T04:46:30.594Z,8.80
2019-04-30T04:48:59.440Z,9.20
2019-04-30T04:51:34.383Z,9.20
2019-04-30T04:53:54.238Z,9.40
2019-04-30T04:56:33.952Z,9.50
2019-04-30T04:59:15.061Z,9.50
2019-04-30T05:01:42.935Z,9.50
2019-04-30T05:04:11.830Z,9.70
2019-04-30T05:07:00.137Z,10.00
2019-04-30T05:09:28.576Z,10.20
2019-04-30T05:11:55.816Z,10.30
2019-04-30T05:14:23.589Z,10.40
2019-04-30T05:16:50.484Z,10.40
2019-04-30T05:19:18.672Z,10.50
2019-04-30T05:21:45.776Z,10.40
2019-04-30T05:24:12.628Z,10.70
2019-04-30T05:26:40.576Z,10.90
2019-04-30T05:29:09.444Z,10.90
2019-04-30T05:31:36.180Z,10.90
2019-04-30T05:34:03.114Z,10.90
2019-04-30T05:36:30.101Z,11.00
2019-04-30T05:38:58.573Z,11.30
2019-04-30T05:41:25.827Z,11.50
2019-04-30T05:43:52.610Z,11.80
2019-04-30T05:46:19.742Z,12.10
2019-04-30T05:48:46.707Z,12.10
2019-04-30T05:51:13.575Z,12.10
2019-04-30T05:53:40.527Z,12.00
2019-04-30T05:56:09.238Z,12.00
2019-04-30T05:58:36.410Z,12.00
2019-04-30T06:01:03.272Z,12.40
2019-04-30T06:03:33.297Z,12.80
2019-04-30T06:05:59.672Z,13.30
2019-04-30T06:08:29.165Z,13.10
2019-04-30T06:10:59.743Z,13.40
2019-04-30T06:13:32.043Z,13.70
2019-04-30T06:16:03.388Z,13.50
2019-04-30T06:18:50.285Z,13.30
2019-04-30T06:21:21.296Z,13.10
2019-04-30T06:23:46.480Z,13.50
2019-04-30T06:26:13.385Z,13.70
2019-04-30T06:28:41.614Z,14.00
2019-04-30T06:31:09.163Z,14.40
2019-04-30T06:33:36.087Z,14.70
2019-04-30T06:36:03.040Z,14.70
2019-04-30T06:38:29.915Z,14.80
2019-04-30T06:40:58.744Z,15.10
2019-04-30T06:43:25.638Z,15.40
2019-04-30T06:45:52.602Z,15.60
2019-04-30T06:48:19.898Z,15.50
2019-04-30T06:50:49.226Z,15.30
2019-04-30T06:53:16.488Z,15.40
2019-04-30T06:55:43.425Z,15.40
2019-04-30T06:58:15.095Z,15.50
2019-04-30T07:00:40.124Z,15.60
2019-04-30T07:03:09.659Z,15.90
2019-04-30T07:05:37.066Z,16.20
2019-04-30T07:08:35.773Z,16.10
2019-04-30T07:11:11.271Z,16.20
2019-04-30T07:13:39.521Z,15.90
2019-04-30T07:16:08.326Z,15.80
2019-04-30T07:18:35.308Z,15.90
2019-04-30T07:21:02.168Z,15.90
2019-04-30T07:23:29.041Z,16.20
2019-04-30T07:25:55.903Z,16.50
2019-04-30T07:28:40.304Z,16.60
2019-04-30T07:31:07.202Z,16.60
2019-04-30T07:33:20.981Z,16.40
2019-04-30T07:35:49.836Z,16.30
2019-04-30T07:38:16.672Z,16.40
2019-04-30T07:40:56.785Z,16.50
2019-04-30T07:43:23.758Z,16.40
2019-04-30T07:45:50.644Z,16.50
2019-04-30T07:48:21.122Z,16.10
2019-04-30T07:50:46.335Z,16.00
2019-04-30T07:53:33.221Z,16.50
2019-04-30T07:56:00.181Z,17.00
2019-04-30T07:58:29.861Z,17.40
2019-04-30T08:00:56.475Z,17.10
2019-04-30T08:03:25.604Z,17.20
2019-04-30T08:05:54.923Z,17.10
2019-04-30T08:08:25.410Z,16.80
2019-04-30T08:10:51.031Z,16.30
2019-04-30T08:13:21.242Z,16.40
2019-04-30T08:15:46.772Z,16.50
2019-04-30T08:18:13.515Z,16.70
2019-04-30T08:20:40.340Z,17.00
2019-04-30T08:23:20.145Z,17.00
2019-04-30T08:25:36.466Z,17.10
2019-04-30T08:28:23.084Z,17.50
2019-04-30T08:30:51.169Z,17.60
2019-04-30T08:33:19.370Z,17.70
2019-04-30T08:35:46.252Z,17.60
2019-04-30T08:38:13.121Z,17.40
2019-04-30T08:40:53.132Z,17.60
2019-04-30T08:43:09.550Z,17.80
2019-04-30T08:45:38.452Z,17.60
2019-04-30T08:48:05.164Z,17.50
2019-04-30T08:50:32.032Z,17.60
2019-04-30T08:52:59.720Z,17.60
2019-04-30T08:55:27.227Z,17.80
2019-04-30T08:58:06.885Z,18.00
2019-04-30T09:00:22.624Z,18.20
2019-04-30T09:02:49.474Z,18.00
2019-04-30T09:05:23.784Z,17.50
2019-04-30T09:08:12.316Z,17.80
2019-04-30T09:10:39.386Z,18.20
2019-04-30T09:13:06.298Z,18.60
2019-04-30T09:15:33.287Z,18.90
2019-04-30T09:18:05.808Z,18.80
2019-04-30T09:20:29.760Z,18.80
2019-04-30T09:22:56.619Z,18.60
2019-04-30T09:25:23.470Z,18.00
2019-04-30T09:27:50.429Z,17.50
2019-04-30T09:30:18.844Z,17.40
2019-04-30T09:32:45.863Z,17.50
2019-04-30T09:35:12.587Z,17.60
2019-04-30T09:37:41.766Z,17.60
2019-04-30T09:40:17.702Z,17.90
2019-04-30T09:42:36.685Z,18.00
2019-04-30T09:45:08.673Z,18.30
2019-04-30T09:47:35.983Z,18.50
2019-04-30T09:50:04.144Z,18.40
2019-04-30T09:52:33.892Z,18.10
2019-04-30T09:55:01.121Z,18.20
2019-04-30T09:57:29.668Z,18.30
2019-04-30T09:59:56.519Z,18.60
2019-04-30T10:02:23.469Z,18.90
2019-04-30T10:04:50.778Z,18.60
2019-04-30T10:07:19.493Z,18.50
2019-04-30T10:09:46.755Z,18.20
2019-04-30T10:12:14.696Z,18.20
2019-04-30T10:14:41.647Z,18.10
2019-04-30T10:17:11.625Z,18.20
2019-04-30T10:19:39.324Z,18.50
2019-04-30T10:22:06.367Z,18.20
2019-04-30T10:24:33.988Z,18.20
2019-04-30T10:27:01.080Z,18.20
2019-04-30T10:29:28.125Z,18.00
2019-04-30T10:31:54.883Z,17.80
2019-04-30T10:34:21.708Z,17.50
2019-04-30T10:36:49.487Z,17.40
2019-04-30T10:39:16.328Z,17.20
2019-04-30T10:41:43.172Z,17.20
2019-04-30T10:44:10.113Z,17.20
2019-04-30T10:46:36.880Z,17.40
2019-04-30T10:49:03.836Z,17.80
2019-04-30T10:51:30.692Z,17.90
2019-04-30T10:53:59.150Z,18.20
2019-04-30T10:56:26.331Z,18.30
2019-04-30T10:58:53.300Z,18.20
2019-04-30T11:01:20.140Z,18.10
2019-04-30T11:03:46.892Z,18.30
2019-04-30T11:06:13.630Z,18.50
2019-04-30T11:08:40.484Z,18.60
2019-04-30T11:11:07.321Z,18.50
2019-04-30T11:13:34.164Z,18.30
2019-04-30T11:16:12.082Z,18.40
2019-04-30T11:18:29.957Z,18.50
2019-04-30T11:20:57.160Z,18.50
2019-04-30T11:23:24.808Z,18.70
2019-04-30T11:25:52.288Z,18.60
2019-04-30T11:28:20.068Z,18.40
2019-04-30T11:30:49.384Z,18.20
2019-04-30T11:33:16.694Z,18.20
2019-04-30T11:35:44.007Z,18.00
2019-04-30T11:38:10.831Z,18.00
2019-04-30T11:40:39.953Z,17.90
2019-04-30T11:43:06.450Z,18.00
2019-04-30T11:46:05.537Z,17.90
2019-04-30T11:48:32.288Z,18.10
2019-04-30T11:50:59.566Z,18.40
2019-04-30T11:53:28.828Z,18.30
2019-04-30T11:55:55.369Z,18.20
2019-04-30T11:58:22.314Z,18.40
2019-04-30T12:00:49.548Z,18.40
2019-04-30T12:03:16.735Z,18.30
2019-04-30T12:05:43.588Z,18.40
2019-04-30T12:08:12.314Z,18.50
2019-04-30T12:10:43.541Z,18.40
2019-04-30T12:13:23.436Z,18.50
2019-04-30T12:15:50.384Z,18.60
2019-04-30T12:18:17.340Z,18.60
2019-04-30T12:20:44.265Z,18.60
2019-04-30T12:23:11.916Z,18.60
2019-04-30T12:25:41.170Z,18.70
2019-04-30T12:28:09.433Z,18.70
2019-04-30T12:30:36.291Z,18.50
2019-04-30T12:33:03.176Z,18.50
2019-04-30T12:35:30.016Z,18.50
2019-04-30T12:37:58.768Z,18.40
2019-04-30T12:40:29.170Z,18.10
2019-04-30T12:42:54.280Z,17.80
2019-04-30T12:45:21.269Z,17.50
2019-04-30T12:47:50.107Z,17.40
2019-04-30T12:53:44.012Z,17.20
2019-04-30T12:56:16.724Z,17.10
2019-04-30T12:58:43.827Z,17.10
2019-04-30T13:01:10.799Z,17.10
2019-04-30T13:03:39.784Z,17.00
2019-04-30T13:06:07.241Z,17.10
2019-04-30T13:08:35.235Z,16.90
2019-04-30T13:11:03.608Z,16.80
2019-04-30T13:13:32.228Z,16.80
2019-04-30T13:16:00.007Z,16.80
2019-04-30T13:18:27.008Z,16.80
2019-04-30T13:20:53.830Z,16.70
2019-04-30T13:23:20.957Z,16.80
2019-04-30T13:25:51.474Z,17.00
2019-04-30T13:28:19.152Z,17.00
2019-04-30T13:30:46.456Z,17.10
2019-04-30T13:33:15.107Z,17.10
2019-04-30T13:35:42.125Z,17.20
2019-04-30T13:38:25.775Z,17.30
2019-04-30T13:40:54.527Z,17.30
2019-04-30T13:43:40.189Z,17.40
2019-04-30T13:46:08.593Z,17.40
2019-04-30T13:48:35.758Z,17.30
2019-04-30T13:51:02.552Z,17.30
2019-04-30T13:53:29.612Z,17.30
2019-04-30T13:55:56.353Z,17.10
2019-04-30T13:58:23.252Z,17.00
2019-04-30T14:00:50.078Z,17.00
2019-04-30T14:03:29.108Z,17.00
2019-04-30T14:05:56.079Z,16.90
2019-04-30T14:08:30.647Z,16.80
2019-04-30T14:10:59.201Z,16.80
2019-04-30T14:13:27.035Z,17.00
2019-04-30T14:15:53.980Z,17.10
2019-04-30T14:18:28.576Z,17.10
2019-04-30T14:20:49.395Z,17.10
2019-04-30T14:23:16.352Z,17.00
2019-04-30T14:25:55.376Z,16.90
2019-04-30T14:28:11.908Z,16.80
2019-04-30T14:30:39.272Z,16.90
2019-04-30T14:33:06.347Z,17.00
2019-04-30T14:35:33.303Z,17.00
2019-04-30T14:38:00.235Z,17.00
2019-04-30T14:40:29.804Z,16.90
2019-04-30T14:42:59.607Z,16.90
2019-04-30T14:45:38.423Z,16.80
2019-04-30T14:48:10.981Z,16.70
2019-04-30T14:50:38.598Z,16.70
2019-04-30T14:53:24.169Z,16.70
2019-04-30T14:56:09.535Z,16.70
2019-04-30T14:58:39.323Z,16.60
2019-04-30T15:01:09.356Z,16.60
2019-04-30T15:03:56.800Z,16.50
2019-04-30T15:06:23.659Z,16.20
2019-04-30T15:08:50.500Z,16.10
2019-04-30T15:11:19.042Z,16.10
2019-04-30T15:13:46.163Z,16.10
2019-04-30T15:16:13.020Z,16.00
2019-04-30T15:18:39.865Z,16.00
2019-04-30T15:21:06.711Z,16.00
2019-04-30T15:26:28.581Z,15.60
2019-04-30T15:28:57.484Z,15.50
2019-04-30T15:31:25.016Z,15.50
2019-04-30T15:34:02.646Z,15.50
2019-04-30T15:36:22.228Z,15.60
2019-04-30T15:41:58.149Z,15.60
2019-04-30T15:44:25.108Z,15.60
2019-04-30T15:46:51.844Z,15.60
2019-04-30T15:49:18.608Z,15.40
2019-04-30T15:51:45.448Z,15.30
2019-04-30T15:54:12.430Z,15.30
2019-04-30T15:56:40.798Z,15.20
2019-04-30T15:59:09.739Z,15.20
2019-04-30T16:01:37.283Z,15.10
2019-04-30T16:04:04.395Z,15.00
2019-04-30T16:06:31.296Z,14.90
2019-04-30T16:12:13.315Z,14.90
2019-04-30T16:14:42.034Z,14.90
2019-04-30T16:17:13.268Z,14.90
2019-04-30T16:19:40.019Z,14.80
2019-04-30T16:22:07.101Z,14.80
2019-04-30T16:24:34.075Z,14.70
2019-04-30T16:27:00.911Z,14.70
2019-04-30T16:29:27.763Z,14.70
2019-04-30T16:31:54.503Z,14.70
2019-04-30T16:34:21.377Z,14.60
2019-04-30T16:36:49.219Z,14.50
2019-04-30T16:39:18.557Z,14.40
2019-04-30T16:41:45.538Z,14.40
2019-04-30T16:44:12.403Z,14.30
2019-04-30T16:46:39.573Z,14.30
2019-04-30T16:49:06.459Z,14.20
2019-04-30T16:51:33.233Z,14.20
2019-04-30T16:54:00.067Z,14.10
2019-04-30T16:56:28.628Z,14.00
2019-04-30T17:01:57.504Z,13.90
2019-04-30T17:04:31.171Z,13.80
2019-04-30T17:07:02.459Z,13.70
2019-04-30T17:09:50.906Z,13.60
2019-04-30T17:12:19.760Z,13.60
2019-04-30T17:14:49.251Z,13.50
2019-04-30T17:17:16.543Z,13.40
2019-04-30T17:19:43.459Z,13.30
2019-04-30T17:22:10.735Z,13.20
2019-04-30T17:24:39.390Z,13.20
2019-04-30T17:27:16.491Z,13.20
2019-04-30T17:29:35.175Z,13.00
2019-04-30T17:32:02.043Z,13.00
2019-04-30T17:34:30.839Z,12.90
2019-04-30T17:36:59.126Z,12.80
2019-04-30T17:39:26.419Z,12.70
2019-04-30T17:41:53.399Z,12.60
2019-04-30T17:44:20.370Z,12.50
2019-04-30T17:46:49.729Z,12.50
2019-04-30T17:49:18.836Z,12.40
2019-04-30T17:51:45.817Z,12.30
2019-04-30T17:54:12.991Z,12.30
2019-04-30T17:56:41.025Z,12.10
2019-04-30T17:59:08.083Z,12.00
2019-04-30T18:01:35.328Z,11.90
2019-04-30T18:04:02.181Z,11.80
2019-04-30T18:06:29.033Z,11.80
2019-04-30T18:08:55.969Z,11.60
2019-04-30T18:11:22.830Z,11.60
2019-04-30T18:13:50.715Z,11.50
2019-04-30T18:16:18.746Z,11.40
2019-04-30T18:21:41.096Z,11.20
2019-04-30T18:27:06.475Z,11.00
2019-04-30T18:29:33.308Z,10.90
2019-04-30T18:32:00.304Z,10.80
2019-04-30T18:34:29.138Z,10.80
2019-04-30T18:36:55.820Z,10.70
2019-04-30T18:39:22.672Z,10.60
2019-04-30T18:41:49.651Z,10.50
2019-04-30T18:44:16.525Z,10.50
2019-04-30T18:46:43.363Z,10.30
2019-04-30T18:49:10.399Z,10.20
2019-04-30T18:51:42.125Z,10.20
2019-04-30T18:54:05.715Z,10.10
2019-04-30T18:56:32.490Z,10.00
2019-04-30T18:58:59.337Z,9.90
2019-04-30T19:01:26.291Z,9.90
2019-04-30T19:03:53.252Z,9.80
2019-04-30T19:09:13.172Z,9.70
2019-04-30T19:11:43.518Z,9.60
2019-04-30T19:14:29.383Z,9.50
2019-04-30T19:17:14.863Z,9.50
2019-04-30T19:19:55.504Z,9.40
2019-04-30T19:22:22.419Z,9.30
2019-04-30T19:24:58.215Z,9.20
2019-04-30T19:27:18.654Z,9.20
2019-04-30T19:29:45.752Z,9.10
2019-04-30T19:32:12.732Z,9.00
2019-04-30T19:34:39.615Z,9.00
2019-04-30T19:37:08.559Z,8.90
2019-04-30T19:39:35.224Z,8.90
2019-04-30T19:42:02.082Z,8.80
2019-04-30T19:44:29.332Z,8.80
2019-04-30T19:46:58.161Z,8.70
2019-04-30T19:49:25.224Z,8.70
2019-04-30T19:52:05.602Z,8.70
2019-04-30T19:54:21.094Z,8.60
2019-04-30T19:56:50.076Z,8.60
2019-04-30T19:59:31.725Z,8.50
2019-04-30T20:02:04.358Z,8.50
2019-04-30T20:04:56.049Z,8.50
2019-04-30T20:07:29.087Z,8.30
2019-04-30T20:10:04.212Z,8.30
2019-04-30T20:12:31.827Z,8.20
2019-04-30T20:15:00.470Z,8.10
2019-04-30T20:17:29.489Z,8.10
2019-04-30T20:19:56.124Z,8.00
2019-04-30T20:22:23.430Z,8.00
2019-04-30T20:24:51.389Z,7.90
2019-04-30T20:27:18.981Z,7.80
2019-04-30T20:29:46.075Z,7.80
2019-04-30T20:32:12.920Z,7.70
2019-04-30T20:34:39.795Z,7.70
2019-04-30T20:37:08.544Z,7.70
2019-04-30T20:39:39.341Z,7.60
2019-04-30T20:42:05.989Z,7.50
2019-04-30T20:44:32.864Z,7.50
2019-04-30T20:47:00.936Z,7.40
2019-04-30T20:49:29.217Z,7.30
2019-04-30T20:51:56.437Z,7.30
2019-04-30T20:54:23.263Z,7.20
2019-04-30T20:56:51.072Z,7.20
2019-04-30T20:59:19.006Z,7.20
2019-04-30T21:01:46.383Z,7.10
2019-04-30T21:04:13.212Z,7.10
2019-04-30T21:06:39.996Z,7.00
2019-04-30T21:09:06.855Z,7.00
2019-04-30T21:11:34.804Z,6.90
2019-04-30T21:14:01.637Z,6.90
2019-04-30T21:16:28.398Z,6.80
2019-04-30T21:18:55.332Z,6.80
2019-04-30T21:21:22.197Z,6.80
2019-04-30T21:23:49.225Z,6.70
2019-04-30T21:26:38.124Z,6.80
2019-04-30T21:29:11.082Z,6.70
2019-04-30T21:31:35.411Z,6.70
2019-04-30T21:34:04.641Z,6.60
2019-04-30T21:36:31.577Z,6.60
2019-04-30T21:38:59.045Z,6.50
2019-04-30T21:41:26.167Z,6.50
2019-04-30T21:43:53.024Z,6.50
2019-04-30T21:46:19.857Z,6.50
2019-04-30T21:48:48.734Z,6.50
2019-04-30T21:51:15.482Z,6.40
2019-04-30T21:53:55.692Z,6.40
2019-04-30T21:56:22.516Z,6.40
2019-04-30T21:58:49.371Z,6.40
2019-04-30T22:01:18.048Z,6.40
2019-04-30T22:03:47.692Z,6.40
2019-04-30T22:06:14.547Z,6.40
2019-04-30T22:08:41.479Z,6.40
2019-04-30T22:11:09.779Z,6.30
2019-04-30T22:13:36.730Z,6.30
2019-04-30T22:16:03.495Z,6.30
2019-04-30T22:18:30.329Z,6.20
2019-04-30T22:20:57.604Z,6.20
2019-04-30T22:23:24.536Z,6.20
2019-04-30T22:25:52.404Z,6.10
2019-04-30T22:28:21.068Z,6.10
2019-04-30T22:30:48.386Z,6.00
2019-04-30T22:33:16.718Z,6.00
2019-04-30T22:41:14.114Z,5.90
2019-04-30T22:43:40.980Z,5.90
2019-04-30T22:46:15.768Z,5.80
2019-04-30T22:48:42.637Z,5.80
2019-04-30T22:51:09.410Z,5.80
2019-04-30T22:53:36.628Z,5.70
2019-04-30T22:56:04.593Z,5.60
2019-04-30T22:58:31.645Z,5.60
2019-04-30T23:04:04.226Z,5.50
2019-04-30T23:06:31.267Z,5.50
2019-04-30T23:08:58.144Z,5.50
2019-04-30T23:11:25.182Z,5.40
2019-04-30T23:13:52.268Z,5.40
2019-04-30T23:16:19.225Z,5.40
2019-04-30T23:18:46.203Z,5.30
2019-04-30T23:21:13.056Z,5.30
2019-04-30T23:23:39.924Z,5.30
2019-04-30T23:26:06.885Z,5.30
2019-04-30T23:28:34.959Z,5.20
2019-04-30T23:31:24.920Z,5.20
2019-04-30T23:33:52.151Z,5.20
2019-04-30T23:36:19.099Z,5.10
2019-04-30T23:38:46.888Z,5.20
2019-04-30T23:41:13.721Z,5.10
2019-04-30T23:43:40.676Z,5.10
2019-04-30T23:46:07.583Z,5.10
2019-04-30T23:48:35.039Z,5.10
2019-04-30T23:51:01.888Z,5.10
2019-04-30T23:53:28.866Z,5.10
2019-04-30T23:55:55.785Z,5.10
2019-04-30T23:58:22.615Z,5.10
